createdAt,value
2018-01-11T00:00:54.026Z,3.52
2018-01-11T00:03:21.415Z,3.65
2018-01-11T00:05:48.838Z,3.74
2018-01-11T00:08:16.290Z,3.81
2018-01-11T00:10:43.686Z,3.89
2018-01-11T00:13:11.083Z,3.90
2018-01-11T00:15:38.482Z,3.89
2018-01-11T00:18:05.885Z,3.88
2018-01-11T00:20:33.283Z,3.80
2018-01-11T00:23:00.685Z,3.69
2018-01-11T00:25:28.089Z,3.66
2018-01-11T00:27:55.472Z,3.61
2018-01-11T00:30:22.891Z,3.24
2018-01-11T00:32:50.304Z,3.11
2018-01-11T00:35:17.710Z,3.01
2018-01-11T00:37:45.107Z,3.03
2018-01-11T00:40:12.507Z,3.11
2018-01-11T00:42:39.908Z,3.21
2018-01-11T00:45:07.303Z,3.18
2018-01-11T00:47:34.707Z,3.24
2018-01-11T00:50:02.098Z,3.30
2018-01-11T00:52:29.498Z,3.32
2018-01-11T00:54:56.993Z,3.29
2018-01-11T00:57:24.394Z,3.20
2018-01-11T00:59:51.791Z,3.08
2018-01-11T01:02:19.199Z,2.89
2018-01-11T01:04:46.589Z,2.82
2018-01-11T01:07:13.989Z,2.77
2018-01-11T01:09:41.378Z,2.74
2018-01-11T01:12:08.787Z,2.86
2018-01-11T01:14:36.179Z,2.85
2018-01-11T01:17:03.593Z,2.84
2018-01-11T01:19:30.982Z,2.89
2018-01-11T01:21:58.378Z,2.85
2018-01-11T01:24:25.766Z,2.80
2018-01-11T01:26:53.194Z,2.74
2018-01-11T01:29:20.586Z,2.83
2018-01-11T01:31:48.058Z,2.99
2018-01-11T01:34:15.479Z,3.12
2018-01-11T01:36:42.886Z,3.10
2018-01-11T01:39:10.278Z,3.22
2018-01-11T01:41:37.693Z,3.24
2018-01-11T01:44:05.082Z,3.22
2018-01-11T01:46:32.487Z,3.15
2018-01-11T01:48:59.879Z,3.06
2018-01-11T01:51:27.276Z,3.17
2018-01-11T01:53:54.671Z,3.26
2018-01-11T01:56:22.088Z,3.19
2018-01-11T01:58:49.502Z,3.23
2018-01-11T02:01:16.912Z,3.29
2018-01-11T02:03:44.307Z,3.16
2018-01-11T02:06:11.706Z,3.00
2018-01-11T02:08:39.106Z,2.91
2018-01-11T02:11:06.507Z,2.76
2018-01-11T02:13:33.934Z,2.75
2018-01-11T02:16:01.366Z,2.66
2018-01-11T02:18:28.746Z,2.54
2018-01-11T02:20:56.142Z,2.47
2018-01-11T02:23:23.610Z,2.52
2018-01-11T02:25:51.049Z,2.68
2018-01-11T02:28:18.833Z,2.66
2018-01-11T02:30:46.237Z,2.64
2018-01-11T02:33:13.655Z,2.82
2018-01-11T02:35:41.055Z,3.01
2018-01-11T02:38:08.471Z,3.15
2018-01-11T02:40:35.863Z,3.13
2018-01-11T02:43:03.273Z,3.15
2018-01-11T02:45:30.657Z,3.01
2018-01-11T02:47:58.122Z,3.02
2018-01-11T02:50:25.524Z,2.96
2018-01-11T02:52:52.917Z,2.79
2018-01-11T02:55:20.320Z,2.84
2018-01-11T02:57:47.713Z,2.78
2018-01-11T03:00:15.109Z,2.71
2018-01-11T03:02:42.506Z,2.68
2018-01-11T03:05:09.901Z,2.70
2018-01-11T03:07:37.298Z,2.72
2018-01-11T03:10:04.695Z,2.42
2018-01-11T03:12:32.097Z,2.46
2018-01-11T03:14:59.489Z,2.57
2018-01-11T03:17:26.931Z,2.65
2018-01-11T03:19:54.318Z,2.56
2018-01-11T03:22:21.723Z,2.58
2018-01-11T03:24:49.125Z,2.58
2018-01-11T03:27:16.518Z,2.60
2018-01-11T03:29:43.916Z,2.56
2018-01-11T03:32:11.984Z,2.58
2018-01-11T03:34:39.374Z,2.54
2018-01-11T03:37:06.777Z,2.46
2018-01-11T03:39:34.173Z,2.15
2018-01-11T03:42:01.578Z,1.80
2018-01-11T03:44:28.975Z,1.66
2018-01-11T03:46:56.369Z,1.54
2018-01-11T03:49:23.774Z,1.54
2018-01-11T03:51:51.162Z,1.47
2018-01-11T03:54:18.554Z,1.55
2018-01-11T03:56:45.978Z,1.63
2018-01-11T03:59:13.393Z,1.83
2018-01-11T04:01:40.790Z,1.83
2018-01-11T04:04:08.246Z,1.92
2018-01-11T04:06:35.654Z,2.02
2018-01-11T04:09:03.055Z,1.91
2018-01-11T04:11:30.470Z,1.90
2018-01-11T04:13:57.874Z,2.03
2018-01-11T04:16:25.324Z,2.10
2018-01-11T04:18:52.690Z,1.96
2018-01-11T04:21:20.115Z,2.23
2018-01-11T04:23:47.506Z,2.38
2018-01-11T04:26:14.932Z,2.44
2018-01-11T04:28:42.322Z,2.41
2018-01-11T04:31:09.724Z,2.52
2018-01-11T04:33:37.180Z,2.49
2018-01-11T04:36:05.542Z,2.42
2018-01-11T04:38:32.958Z,2.43
2018-01-11T04:41:01.059Z,2.54
2018-01-11T04:43:28.463Z,2.46
2018-01-11T04:45:55.878Z,2.36
2018-01-11T04:48:23.292Z,2.43
2018-01-11T04:50:50.688Z,2.46
2018-01-11T04:53:18.095Z,2.29
2018-01-11T04:55:45.540Z,2.22
2018-01-11T04:58:12.922Z,2.10
2018-01-11T05:00:46.050Z,2.30
2018-01-11T05:03:13.543Z,2.30
2018-01-11T05:05:40.936Z,2.35
2018-01-11T05:08:08.330Z,2.30
2018-01-11T05:10:35.742Z,2.17
2018-01-11T05:13:03.151Z,2.28
2018-01-11T05:15:30.542Z,2.13
2018-01-11T05:17:57.947Z,2.23
2018-01-11T05:20:25.351Z,2.29
2018-01-11T05:22:52.762Z,2.31
2018-01-11T05:25:20.167Z,2.19
2018-01-11T05:27:47.558Z,2.11
2018-01-11T05:30:15.669Z,2.08
2018-01-11T05:32:43.051Z,2.05
2018-01-11T05:35:10.450Z,2.02
2018-01-11T05:37:37.855Z,2.10
2018-01-11T05:40:05.264Z,1.99
2018-01-11T05:42:32.666Z,1.94
2018-01-11T05:45:00.073Z,1.99
2018-01-11T05:47:27.467Z,1.86
2018-01-11T05:49:54.856Z,1.86
2018-01-11T05:52:22.299Z,1.91
2018-01-11T05:54:49.695Z,1.80
2018-01-11T05:57:17.095Z,1.76
2018-01-11T05:59:44.490Z,1.40
2018-01-11T06:02:11.918Z,1.48
2018-01-11T06:04:39.338Z,1.70
2018-01-11T06:07:06.751Z,1.85
2018-01-11T06:09:34.144Z,1.97
2018-01-11T06:12:01.548Z,1.91
2018-01-11T06:14:28.950Z,1.89
2018-01-11T06:16:56.359Z,1.80
2018-01-11T06:19:23.762Z,1.95
2018-01-11T06:21:51.158Z,1.97
2018-01-11T06:24:18.558Z,1.93
2018-01-11T06:26:45.946Z,2.01
2018-01-11T06:29:13.368Z,2.08
2018-01-11T06:31:40.751Z,2.10
2018-01-11T06:34:08.156Z,2.05
2018-01-11T06:36:35.637Z,2.05
2018-01-11T06:39:03.044Z,2.02
2018-01-11T06:41:30.430Z,1.71
2018-01-11T06:43:57.834Z,1.57
2018-01-11T06:46:25.223Z,1.46
2018-01-11T06:48:52.635Z,1.58
2018-01-11T06:51:20.034Z,1.71
2018-01-11T06:53:47.422Z,1.70
2018-01-11T06:56:14.815Z,1.59
2018-01-11T06:58:42.262Z,1.28
2018-01-11T07:01:09.658Z,1.47
2018-01-11T07:03:37.058Z,1.33
2018-01-11T07:06:04.442Z,1.48
2018-01-11T07:08:32.206Z,1.43
2018-01-11T07:10:59.603Z,1.26
2018-01-11T07:13:27.003Z,1.12
2018-01-11T07:15:54.396Z,1.08
2018-01-11T07:18:21.794Z,1.10
2018-01-11T07:20:49.209Z,1.02
2018-01-11T07:23:16.610Z,1.06
2018-01-11T07:25:44.011Z,1.12
2018-01-11T07:28:11.409Z,1.33
2018-01-11T07:30:38.804Z,1.48
2018-01-11T07:33:06.390Z,1.66
2018-01-11T07:35:33.791Z,1.70
2018-01-11T07:38:01.191Z,1.70
2018-01-11T07:40:28.590Z,1.80
2018-01-11T07:42:55.993Z,1.75
2018-01-11T07:45:23.383Z,1.86
2018-01-11T07:47:50.784Z,1.95
2018-01-11T07:50:18.173Z,1.94
2018-01-11T07:52:45.585Z,2.01
2018-01-11T07:55:12.988Z,1.90
2018-01-11T07:57:40.382Z,1.81
2018-01-11T08:00:07.780Z,1.91
2018-01-11T08:02:35.177Z,1.88
2018-01-11T08:05:02.567Z,1.82
2018-01-11T08:07:29.971Z,2.00
2018-01-11T08:09:57.358Z,1.99
2018-01-11T08:12:25.407Z,2.06
2018-01-11T08:14:52.802Z,1.95
2018-01-11T08:17:20.190Z,1.92
2018-01-11T08:19:47.599Z,2.05
2018-01-11T08:22:15.159Z,2.30
2018-01-11T08:24:42.593Z,2.57
2018-01-11T08:27:09.934Z,2.72
2018-01-11T08:29:37.391Z,2.85
2018-01-11T08:32:04.787Z,2.87
2018-01-11T08:34:32.203Z,3.20
2018-01-11T08:36:59.594Z,3.55
2018-01-11T08:39:27.026Z,3.91
2018-01-11T08:41:54.416Z,4.15
2018-01-11T08:44:21.840Z,4.39
2018-01-11T08:46:49.280Z,4.68
2018-01-11T08:49:16.779Z,4.97
2018-01-11T08:51:44.175Z,5.23
2018-01-11T08:54:11.586Z,4.63
2018-01-11T08:56:38.978Z,4.65
2018-01-11T08:59:06.405Z,4.37
2018-01-11T09:01:33.815Z,4.12
2018-01-11T09:04:01.206Z,4.38
2018-01-11T09:06:28.598Z,4.20
2018-01-11T09:08:56.026Z,4.04
2018-01-11T09:11:23.399Z,3.66
2018-01-11T09:13:50.798Z,3.20
2018-01-11T09:16:18.203Z,3.06
2018-01-11T09:18:45.594Z,2.92
2018-01-11T09:21:12.992Z,3.33
2018-01-11T09:23:40.387Z,3.60
2018-01-11T09:26:07.784Z,3.74
2018-01-11T09:28:35.179Z,2.99
2018-01-11T09:31:02.579Z,3.57
2018-01-11T09:33:29.984Z,3.39
2018-01-11T09:35:57.367Z,3.59
2018-01-11T09:38:24.771Z,3.80
2018-01-11T09:40:52.167Z,4.17
2018-01-11T09:43:19.559Z,4.03
2018-01-11T09:45:46.951Z,4.47
2018-01-11T09:48:14.347Z,4.38
2018-01-11T09:50:41.739Z,4.24
2018-01-11T09:53:09.145Z,4.53
2018-01-11T09:55:36.531Z,4.54
2018-01-11T09:58:03.934Z,4.40
2018-01-11T10:00:31.326Z,4.86
2018-01-11T10:02:58.722Z,5.31
2018-01-11T10:05:26.136Z,6.20
2018-01-11T10:07:53.526Z,6.79
2018-01-11T10:10:20.922Z,7.72
2018-01-11T10:12:48.315Z,8.56
2018-01-11T10:15:15.719Z,9.31
2018-01-11T10:17:43.162Z,9.58
2018-01-11T10:20:10.551Z,9.72
2018-01-11T10:22:37.950Z,10.16
2018-01-11T10:25:05.351Z,10.70
2018-01-11T10:27:32.750Z,11.14
2018-01-11T10:30:00.161Z,11.78
2018-01-11T10:32:27.579Z,10.80
2018-01-11T10:34:54.984Z,10.36
2018-01-11T10:37:22.375Z,9.61
2018-01-11T10:39:49.775Z,9.54
2018-01-11T10:42:17.189Z,10.01
2018-01-11T10:44:44.598Z,9.92
2018-01-11T10:47:11.987Z,9.41
2018-01-11T10:49:39.386Z,9.83
2018-01-11T10:52:06.784Z,9.78
2018-01-11T10:54:34.182Z,10.22
2018-01-11T10:57:01.578Z,9.79
2018-01-11T10:59:28.983Z,9.94
2018-01-11T11:02:02.117Z,10.06
2018-01-11T11:04:29.518Z,10.24
2018-01-11T11:06:56.948Z,9.99
2018-01-11T11:09:24.355Z,10.18
2018-01-11T11:11:51.758Z,10.19
2018-01-11T11:14:19.217Z,10.11
2018-01-11T11:16:46.614Z,10.31
2018-01-11T11:19:14.021Z,10.54
2018-01-11T11:21:41.410Z,10.35
2018-01-11T11:24:08.831Z,10.44
2018-01-11T11:26:36.226Z,10.70
2018-01-11T11:29:03.648Z,10.60
2018-01-11T11:31:31.094Z,10.42
2018-01-11T11:33:58.547Z,10.36
2018-01-11T11:36:25.952Z,10.01
2018-01-11T11:38:53.345Z,9.48
2018-01-11T11:41:20.735Z,9.24
2018-01-11T11:43:48.134Z,9.27
2018-01-11T11:46:15.548Z,9.32
2018-01-11T11:48:42.964Z,9.00
2018-01-11T11:51:10.355Z,8.80
2018-01-11T11:53:37.751Z,8.68
2018-01-11T11:56:05.150Z,8.73
2018-01-11T11:58:32.542Z,8.86
2018-01-11T12:00:59.947Z,8.74
2018-01-11T12:03:27.347Z,8.68
2018-01-11T12:05:54.775Z,8.93
2018-01-11T12:08:22.175Z,9.10
2018-01-11T12:10:49.571Z,9.20
2018-01-11T12:13:16.954Z,9.31
2018-01-11T12:15:44.363Z,9.21
2018-01-11T12:18:11.755Z,9.19
2018-01-11T12:20:39.150Z,9.31
2018-01-11T12:23:06.538Z,9.19
2018-01-11T12:25:33.940Z,9.02
2018-01-11T12:28:01.329Z,8.63
2018-01-11T12:30:28.739Z,8.71
2018-01-11T12:32:56.185Z,8.34
2018-01-11T12:35:23.587Z,8.40
2018-01-11T12:37:50.978Z,8.50
2018-01-11T12:40:18.379Z,8.68
2018-01-11T12:42:45.799Z,8.52
2018-01-11T12:45:13.199Z,8.44
2018-01-11T12:47:40.590Z,8.44
2018-01-11T12:50:08.005Z,8.37
2018-01-11T12:52:35.398Z,7.99
2018-01-11T12:55:02.802Z,7.96
2018-01-11T12:57:30.296Z,8.09
2018-01-11T12:59:57.687Z,8.27
2018-01-11T13:02:25.087Z,8.22
2018-01-11T13:04:52.495Z,8.18
2018-01-11T13:07:19.888Z,7.98
2018-01-11T13:09:47.302Z,7.62
2018-01-11T13:12:14.715Z,7.26
2018-01-11T13:14:42.123Z,7.24
2018-01-11T13:17:09.514Z,7.20
2018-01-11T13:19:36.910Z,7.24
2018-01-11T13:22:04.334Z,7.09
2018-01-11T13:24:31.731Z,7.30
2018-01-11T13:26:59.126Z,7.08
2018-01-11T13:29:26.524Z,7.07
2018-01-11T13:31:53.943Z,7.08
2018-01-11T13:34:21.384Z,7.09
2018-01-11T13:36:48.792Z,7.08
2018-01-11T13:39:16.218Z,7.37
2018-01-11T13:41:43.590Z,7.24
2018-01-11T13:44:10.995Z,7.36
2018-01-11T13:46:38.388Z,7.40
2018-01-11T13:49:05.794Z,7.59
2018-01-11T13:51:33.208Z,7.69
2018-01-11T13:54:00.599Z,7.88
2018-01-11T13:56:27.999Z,7.99
2018-01-11T13:58:55.399Z,7.89
2018-01-11T14:01:22.815Z,8.11
2018-01-11T14:03:50.211Z,8.17
2018-01-11T14:06:17.682Z,8.15
2018-01-11T14:08:45.075Z,8.22
2018-01-11T14:11:12.491Z,8.26
2018-01-11T14:13:39.882Z,8.28
2018-01-11T14:16:07.288Z,8.36
2018-01-11T14:18:34.711Z,8.32
2018-01-11T14:21:02.128Z,8.31
2018-01-11T14:23:29.503Z,8.26
2018-01-11T14:25:56.901Z,8.07
2018-01-11T14:28:24.294Z,7.95
2018-01-11T14:30:51.699Z,7.75
2018-01-11T14:33:19.190Z,7.13
2018-01-11T14:35:46.650Z,6.67
2018-01-11T14:38:14.040Z,6.27
2018-01-11T14:40:41.430Z,6.42
2018-01-11T14:43:08.831Z,6.57
2018-01-11T14:45:36.251Z,6.23
2018-01-11T14:48:03.636Z,6.02
2018-01-11T14:50:31.151Z,5.83
2018-01-11T14:52:58.491Z,5.80
2018-01-11T14:55:25.896Z,5.57
2018-01-11T14:57:53.295Z,5.48
2018-01-11T15:00:20.698Z,5.51
2018-01-11T15:02:48.099Z,5.76
2018-01-11T15:05:15.543Z,6.15
2018-01-11T15:07:42.939Z,6.37
2018-01-11T15:10:10.403Z,6.42
2018-01-11T15:12:37.751Z,6.64
2018-01-11T15:15:05.155Z,6.79
2018-01-11T15:17:32.556Z,6.82
2018-01-11T15:20:00.054Z,6.90
2018-01-11T15:22:27.503Z,6.88
2018-01-11T15:24:54.898Z,6.67
2018-01-11T15:27:22.299Z,6.64
2018-01-11T15:29:49.711Z,6.69
2018-01-11T15:32:17.102Z,6.38
2018-01-11T15:34:44.539Z,6.47
2018-01-11T15:37:11.947Z,6.45
2018-01-11T15:39:39.343Z,6.02
2018-01-11T15:42:06.846Z,5.55
2018-01-11T15:44:34.290Z,5.52
2018-01-11T15:47:01.693Z,5.29
2018-01-11T15:49:29.084Z,5.38
2018-01-11T15:51:56.514Z,5.31
2018-01-11T15:54:23.891Z,5.14
2018-01-11T15:56:51.309Z,5.10
2018-01-11T15:59:18.693Z,4.99
2018-01-11T16:01:46.132Z,4.88
2018-01-11T16:04:13.498Z,4.84
2018-01-11T16:06:40.898Z,4.98
2018-01-11T16:09:08.295Z,4.90
2018-01-11T16:11:35.691Z,4.81
2018-01-11T16:14:03.085Z,4.69
2018-01-11T16:16:30.483Z,4.78
2018-01-11T16:18:57.882Z,4.73
2018-01-11T16:21:25.430Z,4.71
2018-01-11T16:23:52.931Z,4.63
2018-01-11T16:26:20.275Z,4.69
2018-01-11T16:28:47.666Z,4.48
2018-01-11T16:31:15.070Z,4.62
2018-01-11T16:33:42.466Z,4.64
2018-01-11T16:36:09.881Z,4.70
2018-01-11T16:38:37.287Z,5.03
2018-01-11T16:41:04.671Z,5.24
2018-01-11T16:43:32.100Z,5.34
2018-01-11T16:45:59.506Z,5.52
2018-01-11T16:48:26.906Z,5.66
2018-01-11T16:50:54.299Z,5.76
2018-01-11T16:53:21.693Z,5.83
2018-01-11T16:55:49.099Z,5.94
2018-01-11T16:58:16.501Z,6.08
2018-01-11T17:00:43.978Z,6.12
2018-01-11T17:03:11.392Z,6.15
2018-01-11T17:05:38.832Z,6.18
2018-01-11T17:08:06.231Z,6.01
2018-01-11T17:10:33.674Z,6.08
2018-01-11T17:13:01.082Z,5.99
2018-01-11T17:15:28.495Z,6.02
2018-01-11T17:17:55.891Z,5.75
2018-01-11T17:20:23.294Z,5.56
2018-01-11T17:22:50.691Z,5.73
2018-01-11T17:25:18.099Z,5.81
2018-01-11T17:27:45.497Z,5.88
2018-01-11T17:30:12.889Z,5.97
2018-01-11T17:32:40.297Z,6.05
2018-01-11T17:35:07.674Z,6.18
2018-01-11T17:37:35.076Z,6.16
2018-01-11T17:40:02.467Z,6.18
2018-01-11T17:42:29.868Z,6.19
2018-01-11T17:44:57.265Z,6.04
2018-01-11T17:47:24.662Z,5.97
2018-01-11T17:49:52.146Z,5.81
2018-01-11T17:52:19.556Z,5.84
2018-01-11T17:54:46.958Z,5.78
2018-01-11T17:57:14.354Z,5.68
2018-01-11T17:59:41.744Z,5.81
2018-01-11T18:02:09.139Z,5.90
2018-01-11T18:04:36.546Z,5.97
2018-01-11T18:07:03.939Z,6.04
2018-01-11T18:09:31.346Z,5.92
2018-01-11T18:11:58.747Z,6.09
2018-01-11T18:14:26.162Z,6.14
2018-01-11T18:16:53.579Z,6.21
2018-01-11T18:19:20.979Z,6.30
2018-01-11T18:21:48.370Z,6.34
2018-01-11T18:24:15.768Z,6.37
2018-01-11T18:26:43.206Z,6.25
2018-01-11T18:29:11.430Z,6.34
2018-01-11T18:31:38.835Z,6.42
2018-01-11T18:34:06.240Z,6.48
2018-01-11T18:36:33.635Z,6.51
2018-01-11T18:39:01.087Z,6.53
2018-01-11T18:41:28.650Z,6.60
2018-01-11T18:43:56.232Z,6.63
2018-01-11T18:46:24.105Z,6.64
2018-01-11T18:48:51.675Z,6.67
2018-01-11T18:51:19.149Z,6.67
2018-01-11T18:53:46.695Z,6.72
2018-01-11T18:56:14.149Z,6.67
2018-01-11T18:58:41.675Z,6.65
2018-01-11T19:01:09.076Z,6.59
2018-01-11T19:03:36.475Z,6.61
2018-01-11T19:06:03.875Z,6.52
2018-01-11T19:08:31.266Z,6.50
2018-01-11T19:10:58.667Z,6.49
2018-01-11T19:13:26.072Z,6.41
2018-01-11T19:15:53.467Z,6.41
2018-01-11T19:18:20.891Z,6.38
2018-01-11T19:20:48.292Z,6.36
2018-01-11T19:23:15.682Z,6.21
2018-01-11T19:25:43.078Z,6.19
2018-01-11T19:28:10.475Z,6.26
2018-01-11T19:30:38.470Z,6.27
2018-01-11T19:33:05.857Z,6.20
2018-01-11T19:35:33.259Z,6.19
2018-01-11T19:38:00.699Z,6.32
2018-01-11T19:40:28.103Z,6.35
2018-01-11T19:42:55.500Z,6.39
2018-01-11T19:45:22.906Z,6.44
2018-01-11T19:47:50.295Z,6.46
2018-01-11T19:50:17.762Z,6.47
2018-01-11T19:52:45.162Z,6.51
2018-01-11T19:55:12.556Z,6.56
2018-01-11T19:57:39.955Z,6.58
2018-01-11T20:00:07.355Z,6.58
2018-01-11T20:02:34.840Z,6.57
2018-01-11T20:05:02.260Z,6.58
2018-01-11T20:07:29.658Z,6.47
2018-01-11T20:09:57.055Z,6.51
2018-01-11T20:12:24.571Z,6.56
2018-01-11T20:14:51.975Z,6.59
2018-01-11T20:17:19.391Z,6.53
2018-01-11T20:19:46.802Z,6.46
2018-01-11T20:22:14.215Z,6.50
2018-01-11T20:24:41.607Z,6.47
2018-01-11T20:27:09.014Z,6.43
2018-01-11T20:29:36.452Z,6.44
2018-01-11T20:32:03.854Z,6.50
2018-01-11T20:34:31.246Z,6.52
2018-01-11T20:36:58.659Z,6.56
2018-01-11T20:39:26.042Z,6.56
2018-01-11T20:41:53.470Z,6.50
2018-01-11T20:44:20.858Z,6.53
2018-01-11T20:46:48.258Z,6.54
2018-01-11T20:49:15.782Z,6.55
2018-01-11T20:51:43.202Z,6.52
2018-01-11T20:54:10.578Z,6.56
2018-01-11T20:56:37.970Z,6.38
2018-01-11T20:59:05.366Z,6.33
2018-01-11T21:01:32.845Z,6.19
2018-01-11T21:04:00.290Z,6.21
2018-01-11T21:06:27.931Z,6.23
2018-01-11T21:08:55.418Z,6.27
2018-01-11T21:11:22.835Z,6.33
2018-01-11T21:13:50.247Z,6.34
2018-01-11T21:16:17.650Z,6.34
2018-01-11T21:18:45.046Z,6.33
2018-01-11T21:21:12.442Z,6.34
2018-01-11T21:23:39.839Z,6.29
2018-01-11T21:26:07.243Z,6.28
2018-01-11T21:28:34.663Z,6.37
2018-01-11T21:31:02.111Z,6.14
2018-01-11T21:33:29.543Z,6.20
2018-01-11T21:35:56.935Z,6.27
2018-01-11T21:38:24.348Z,6.18
2018-01-11T21:40:51.743Z,5.99
2018-01-11T21:43:19.231Z,5.89
2018-01-11T21:45:46.622Z,5.96
2018-01-11T21:48:14.031Z,6.00
2018-01-11T21:50:41.519Z,5.83
2018-01-11T21:53:08.914Z,5.84
2018-01-11T21:55:36.315Z,5.91
2018-01-11T21:58:03.723Z,5.88
2018-01-11T22:00:31.152Z,5.84
2018-01-11T22:02:58.562Z,5.84
2018-01-11T22:05:25.952Z,5.81
2018-01-11T22:07:53.357Z,5.90
2018-01-11T22:10:20.746Z,5.79
2018-01-11T22:12:48.143Z,5.72
2018-01-11T22:15:15.543Z,5.86
2018-01-11T22:17:42.935Z,5.90
2018-01-11T22:20:10.371Z,5.75
2018-01-11T22:22:37.985Z,5.76
2018-01-11T22:25:05.528Z,5.65
2018-01-11T22:27:32.923Z,5.67
2018-01-11T22:30:00.415Z,5.69
2018-01-11T22:32:27.802Z,5.70
2018-01-11T22:34:55.222Z,5.62
2018-01-11T22:37:22.615Z,5.70
2018-01-11T22:39:50.023Z,5.50
2018-01-11T22:42:17.423Z,5.45
2018-01-11T22:44:44.863Z,5.42
2018-01-11T22:47:12.261Z,5.33
2018-01-11T22:49:39.675Z,5.52
2018-01-11T22:52:07.075Z,5.42
2018-01-11T22:54:34.538Z,5.40
2018-01-11T22:57:01.943Z,5.05
2018-01-11T22:59:29.335Z,5.00
2018-01-11T23:01:56.742Z,5.13
2018-01-11T23:04:24.142Z,5.32
2018-01-11T23:06:51.556Z,5.42
2018-01-11T23:09:18.955Z,5.45
2018-01-11T23:11:46.367Z,5.50
2018-01-11T23:14:13.763Z,5.67
2018-01-11T23:16:41.188Z,5.79
2018-01-11T23:19:08.575Z,5.91
2018-01-11T23:21:35.978Z,5.91
2018-01-11T23:24:03.370Z,5.89
2018-01-11T23:26:30.770Z,5.83
2018-01-11T23:28:58.158Z,5.82
2018-01-11T23:31:25.781Z,5.72
2018-01-11T23:33:53.162Z,5.76
2018-01-11T23:36:20.560Z,5.93
2018-01-11T23:38:47.959Z,5.99
2018-01-11T23:41:15.358Z,6.04
2018-01-11T23:43:42.756Z,6.13
2018-01-11T23:46:10.199Z,6.11
2018-01-11T23:48:37.590Z,5.99
2018-01-11T23:51:04.983Z,6.16
2018-01-11T23:53:32.471Z,6.21
2018-01-11T23:55:59.871Z,6.31
2018-01-11T23:58:27.280Z,6.39
